Time;durP1;ratioP1;P1;durP2;ratioP2;P2;SDS_P1;SDS_P2;PMS_P1;PMS_P2;Temp;Humidity;BMP_temperature;BMP_pressure;BME280_temperature;BME280_humidity;BME280_pressure;Samples;Min_cycle;Max_cycle;Signal;HPM_P1;HPM_P2
2021/01/13 00:00:23;;;;;;;2.42;0.90;;;1.80;99.90;;;;;;4840095;29;20105;-67
2021/01/13 00:02:50;;;;;;;2.13;0.77;;;1.80;99.90;;;;;;4838894;29;20072;-67
2021/01/13 00:05:17;;;;;;;4.05;1.00;;;1.70;99.90;;;;;;4835908;29;20054;-66
2021/01/13 00:07:50;;;;;;;1.40;0.73;;;1.70;99.90;;;;;;4846314;29;20096;-66
2021/01/13 00:10:17;;;;;;;1.63;0.88;;;1.60;99.90;;;;;;4835488;29;20113;-66
2021/01/13 00:12:43;;;;;;;1.70;0.95;;;1.60;99.90;;;;;;4831972;29;20555;-67
2021/01/13 00:15:10;;;;;;;2.28;0.80;;;1.60;99.90;;;;;;4832201;29;20141;-67
2021/01/13 00:17:37;;;;;;;1.98;1.10;;;1.60;99.90;;;;;;4856245;29;20458;-66
2021/01/13 00:20:05;;;;;;;2.22;0.95;;;1.60;99.90;;;;;;4832068;29;20141;-67
2021/01/13 00:22:32;;;;;;;2.85;1.10;;;1.60;99.90;;;;;;4855487;29;20042;-67
2021/01/13 00:24:58;;;;;;;2.22;1.25;;;1.60;99.90;;;;;;4837649;29;20517;-66
2021/01/13 00:27:25;;;;;;;1.00;0.70;;;1.60;99.90;;;;;;4841739;29;20045;-67
2021/01/13 00:29:53;;;;;;;2.38;1.52;;;1.70;99.90;;;;;;4837174;29;20439;-67
2021/01/13 00:32:20;;;;;;;1.70;0.90;;;1.70;99.90;;;;;;4837029;29;20200;-66
2021/01/13 00:34:46;;;;;;;1.48;0.95;;;1.70;99.90;;;;;;4835547;29;20093;-66
2021/01/13 00:37:14;;;;;;;1.92;0.80;;;1.80;99.90;;;;;;4842306;29;20450;-67
2021/01/13 00:39:41;;;;;;;1.40;0.95;;;1.80;99.90;;;;;;4841017;29;20084;-67
2021/01/13 00:42:08;;;;;;;1.73;0.90;;;1.80;99.90;;;;;;4844153;29;20140;-67
2021/01/13 00:44:35;;;;;;;3.58;1.65;;;1.70;99.90;;;;;;4857271;29;20358;-67
2021/01/13 00:47:02;;;;;;;1.30;0.80;;;1.70;99.90;;;;;;4833795;29;20058;-67
2021/01/13 00:49:29;;;;;;;3.45;1.15;;;1.80;99.90;;;;;;4838308;29;20140;-66
2021/01/13 00:51:56;;;;;;;2.03;1.42;;;1.90;99.90;;;;;;4836221;29;20121;-66
2021/01/13 00:54:22;;;;;;;1.75;1.20;;;2.00;99.90;;;;;;4852974;29;20459;-67
2021/01/13 00:56:49;;;;;;;1.83;0.70;;;2.10;99.90;;;;;;4833075;29;20400;-67
2021/01/13 00:59:16;;;;;;;1.58;1.08;;;2.10;99.90;;;;;;4851864;29;20049;-66
2021/01/13 01:01:45;;;;;;;3.00;1.42;;;2.20;99.90;;;;;;4843900;29;20069;-69
2021/01/13 01:04:13;;;;;;;1.50;0.93;;;2.30;99.90;;;;;;4836147;29;20505;-69
2021/01/13 01:06:39;;;;;;;2.10;1.20;;;2.30;99.90;;;;;;4841728;29;20057;-69
2021/01/13 01:09:07;;;;;;;1.67;0.88;;;2.40;99.90;;;;;;4837021;29;20099;-69
2021/01/13 01:11:38;;;;;;;2.63;0.80;;;2.40;99.90;;;;;;4839965;29;20105;-69
2021/01/13 01:14:06;;;;;;;1.95;0.70;;;2.40;99.90;;;;;;4843260;29;20108;-69
2021/01/13 01:16:37;;;;;;;1.65;0.70;;;2.40;99.90;;;;;;4843811;29;20113;-69
2021/01/13 01:19:06;;;;;;;4.20;0.90;;;2.30;99.90;;;;;;4837967;29;20227;-69
2021/01/13 01:21:33;;;;;;;;;;;2.30;99.90;;;;;;4840238;29;20090;-69
2021/01/13 01:23:59;;;;;;;1.27;0.70;;;2.20;99.90;;;;;;4836207;29;19933;-69
2021/01/13 01:26:27;;;;;;;1.70;0.70;;;2.10;99.90;;;;;;4851321;29;20498;-69
2021/01/13 01:28:54;;;;;;;2.33;0.93;;;2.00;99.90;;;;;;4836683;29;20064;-69
2021/01/13 01:31:22;;;;;;;3.47;1.00;;;2.00;99.90;;;;;;4837215;29;20057;-69
2021/01/13 01:33:48;;;;;;;2.00;0.90;;;1.90;99.90;;;;;;4839199;29;20101;-69
2021/01/13 01:36:15;;;;;;;2.85;0.70;;;1.80;99.90;;;;;;4840791;29;20065;-69
2021/01/13 01:38:44;;;;;;;1.00;0.60;;;1.80;99.90;;;;;;4839099;29;20532;-69
2021/01/13 01:41:15;;;;;;;1.52;0.80;;;1.80;99.90;;;;;;4854489;29;20141;-69
2021/01/13 01:43:45;;;;;;;1.75;0.70;;;1.80;99.90;;;;;;4839981;29;20053;-69
2021/01/13 01:46:13;;;;;;;2.22;0.85;;;1.70;99.90;;;;;;4837794;29;20065;-68
2021/01/13 01:49:00;;;;;;;1.35;0.70;;;1.70;99.90;;;;;;4833905;29;20113;-69
2021/01/13 01:51:38;;;;;;;1.80;0.80;;;1.70;99.90;;;;;;4838928;29;20058;-68
2021/01/13 01:54:12;;;;;;;1.10;0.70;;;1.70;99.90;;;;;;4838132;29;20422;-68
2021/01/13 01:56:41;;;;;;;1.52;0.70;;;1.70;99.90;;;;;;4829944;29;20089;-69
2021/01/13 01:59:09;;;;;;;1.23;0.80;;;1.70;99.90;;;;;;4836108;29;20062;-69
2021/01/13 02:01:37;;;;;;;2.22;0.98;;;1.70;99.90;;;;;;4841355;29;20201;-69
2021/01/13 02:04:30;;;;;;;2.97;0.90;;;1.70;99.90;;;;;;4834718;29;20069;-69
2021/01/13 02:06:57;;;;;;;1.48;0.68;;;1.70;99.90;;;;;;4842154;29;20125;-69
2021/01/13 02:09:27;;;;;;;1.60;0.82;;;1.70;99.90;;;;;;4833479;29;20054;-70
2021/01/13 02:11:56;;;;;;;1.15;0.70;;;1.80;99.90;;;;;;4852416;29;20057;-70
2021/01/13 02:14:24;;;;;;;2.15;0.82;;;1.80;99.90;;;;;;4834572;29;20069;-69
2021/01/13 02:16:52;;;;;;;3.35;2.15;;;1.90;99.90;;;;;;4833295;29;20057;-70
2021/01/13 02:19:38;;;;;;;1.77;0.80;;;2.00;99.90;;;;;;4834361;29;20053;-70
2021/01/13 02:22:12;;;;;;;4.40;1.00;;;2.10;99.90;;;;;;4829724;29;20422;-70
2021/01/13 02:25:15;;;;;;;1.27;0.70;;;2.20;99.90;;;;;;4835258;29;20061;-70
2021/01/13 02:28:02;;;;;;;1.63;0.70;;;2.30;99.90;;;;;;4848116;29;20050;-70
2021/01/13 02:30:39;;;;;;;2.65;1.33;;;2.40;99.90;;;;;;4839249;29;20359;-70
2021/01/13 02:33:29;;;;;;;1.20;0.50;;;2.40;99.90;;;;;;4837011;29;20064;-70
2021/01/13 02:36:38;;;;;;;1.10;0.60;;;2.40;99.90;;;;;;4835332;29;20494;-70
2021/01/13 02:39:08;;;;;;;2.50;0.60;;;2.40;99.90;;;;;;4827901;29;20109;-70
2021/01/13 02:41:43;;;;;;;1.65;0.80;;;2.40;99.90;;;;;;4838044;29;20562;-70
2021/01/13 02:44:10;;;;;;;0.98;0.52;;;2.30;99.90;;;;;;4830643;29;20084;-69
2021/01/13 02:46:55;;;;;;;1.83;0.70;;;2.30;99.90;;;;;;4841749;29;20088;-69
2021/01/13 02:49:29;;;;;;;0.90;0.50;;;2.30;99.90;;;;;;4850257;29;20057;-70
2021/01/13 02:51:58;;;;;;;0.90;0.60;;;2.20;99.90;;;;;;4850147;29;20058;-69
2021/01/13 02:54:40;;;;;;;1.30;0.60;;;2.20;99.90;;;;;;4837197;29;20138;-70
2021/01/13 02:57:18;;;;;;;1.52;0.70;;;2.20;99.90;;;;;;4860298;29;20467;-70
2021/01/13 02:59:49;;;;;;;2.25;0.68;;;2.20;99.90;;;;;;4843853;29;20156;-69
2021/01/13 03:02:17;;;;;;;1.70;0.82;;;2.30;99.90;;;;;;4838034;29;20085;-70
2021/01/13 03:04:44;;;;;;;1.55;0.82;;;2.30;99.90;;;;;;4840788;29;20052;-70
2021/01/13 03:07:15;;;;;;;1.58;0.80;;;2.30;99.90;;;;;;4831484;29;20099;-70
2021/01/13 03:09:48;;;;;;;2.65;0.70;;;2.40;99.90;;;;;;4831446;29;20467;-70
2021/01/13 03:12:26;;;;;;;1.05;0.60;;;2.40;99.90;;;;;;4837066;29;20057;-69
2021/01/13 03:14:55;;;;;;;1.70;0.93;;;2.50;99.90;;;;;;4841514;29;20105;-70
2021/01/13 03:17:26;;;;;;;1.15;0.60;;;2.50;99.90;;;;;;4845014;29;20122;-70
2021/01/13 03:20:26;;;;;;;3.13;0.70;;;2.50;99.90;;;;;;4840764;29;20113;-69
2021/01/13 03:23:06;;;;;;;3.28;0.80;;;2.50;99.90;;;;;;4841642;29;20041;-69
2021/01/13 03:25:35;;;;;;;;;;;2.50;99.90;;;;;;4841103;29;20102;-69
2021/01/13 03:28:05;;;;;;;1.33;0.73;;;2.50;99.90;;;;;;4837551;29;20392;-69
2021/01/13 03:30:33;;;;;;;1.23;0.60;;;2.50;99.90;;;;;;4833876;29;20114;-70
2021/01/13 03:33:02;;;;;;;1.73;0.60;;;2.50;99.90;;;;;;4833192;29;20081;-69
2021/01/13 03:35:38;;;;;;;;;;;2.50;99.90;;;;;;4844915;29;20106;-69
2021/01/13 03:38:18;;;;;;;2.25;0.85;;;2.50;99.90;;;;;;4852556;29;19924;-69
2021/01/13 03:40:47;;;;;;;2.72;0.60;;;2.60;99.90;;;;;;4839356;29;20515;-70
2021/01/13 03:43:21;;;;;;;1.30;0.45;;;2.60;99.90;;;;;;4850883;29;20058;-70
2021/01/13 03:45:54;;;;;;;1.90;0.75;;;2.70;99.90;;;;;;4838992;29;20081;-70
2021/01/13 03:48:50;;;;;;;2.97;0.68;;;2.80;99.90;;;;;;4835868;29;20057;-69
2021/01/13 03:51:39;;;;;;;8.27;0.68;;;2.90;99.90;;;;;;4852036;29;20446;-69
2021/01/13 03:54:08;;;;;;;3.13;1.05;;;2.90;99.90;;;;;;4846915;29;20101;-70
2021/01/13 03:56:52;;;;;;;2.08;0.73;;;3.00;99.90;;;;;;4849000;29;20143;-70
2021/01/13 03:59:29;;;;;;;2.80;0.82;;;3.10;99.90;;;;;;4834082;29;20060;-69
2021/01/13 04:02:04;;;;;;;2.88;0.95;;;3.10;99.90;;;;;;4832269;29;20046;-69
2021/01/13 04:05:12;;;;;;;3.15;0.85;;;3.20;99.90;;;;;;4834336;29;20108;-70
2021/01/13 04:07:39;;;;;;;3.03;0.70;;;3.20;99.90;;;;;;4846115;29;20049;-69
2021/01/13 04:10:14;;;;;;;2.55;0.80;;;3.20;99.90;;;;;;4848079;29;20103;-70
2021/01/13 04:12:51;;;;;;;2.03;0.88;;;3.20;99.90;;;;;;4853798;29;20093;-69
2021/01/13 04:15:19;;;;;;;1.33;0.65;;;3.20;99.90;;;;;;4846007;29;20057;-69
2021/01/13 04:17:48;;;;;;;4.35;0.98;;;3.20;99.90;;;;;;4838243;29;20092;-70
2021/01/13 04:20:15;;;;;;;3.80;0.77;;;3.20;99.90;;;;;;4835491;29;20054;-70
2021/01/13 04:22:42;;;;;;;2.45;0.95;;;3.20;99.90;;;;;;4866181;29;20113;-70
2021/01/13 04:25:09;;;;;;;1.83;0.85;;;3.20;99.90;;;;;;4835245;29;20407;-70
2021/01/13 04:27:37;;;;;;;2.63;1.20;;;3.20;99.90;;;;;;4839063;29;20049;-69
2021/01/13 04:30:04;;;;;;;3.27;0.63;;;3.20;99.90;;;;;;4828378;29;20106;-69
2021/01/13 04:32:31;;;;;;;2.08;0.60;;;3.20;99.90;;;;;;4835024;29;20314;-70
2021/01/13 04:34:58;;;;;;;2.40;0.73;;;3.20;99.90;;;;;;4834977;29;20057;-70
2021/01/13 04:37:27;;;;;;;3.13;0.93;;;3.20;99.90;;;;;;4848034;29;20466;-69
2021/01/13 04:39:55;;;;;;;1.20;0.52;;;3.20;99.90;;;;;;4842811;29;20490;-69
2021/01/13 04:42:30;;;;;;;2.85;0.93;;;3.30;99.90;;;;;;4843239;29;20117;-70
2021/01/13 04:45:05;;;;;;;3.22;1.00;;;3.30;99.90;;;;;;4832694;29;20054;-70
2021/01/13 04:47:50;;;;;;;2.35;0.90;;;3.30;99.90;;;;;;4837569;29;20097;-70
2021/01/13 04:50:19;;;;;;;2.17;0.95;;;3.30;99.90;;;;;;4841853;29;20110;-70
2021/01/13 04:52:57;;;;;;;2.95;1.17;;;3.20;99.90;;;;;;4861189;29;20054;-69
2021/01/13 04:55:25;;;;;;;1.92;0.75;;;3.20;99.90;;;;;;4834832;29;20160;-69
2021/01/13 04:58:10;;;;;;;1.70;0.90;;;3.30;99.90;;;;;;4840316;29;20049;-69
2021/01/13 05:01:27;;;;;;;2.88;0.85;;;3.20;99.90;;;;;;4836173;29;20105;-69
2021/01/13 05:04:33;;;;;;;2.70;0.90;;;3.20;99.90;;;;;;4835559;29;20062;-69
2021/01/13 05:07:33;;;;;;;1.63;0.70;;;3.20;99.90;;;;;;4845346;29;20077;-69
2021/01/13 05:10:09;;;;;;;2.45;0.90;;;3.30;99.90;;;;;;4830297;29;20110;-69
2021/01/13 05:12:45;;;;;;;2.25;0.95;;;3.30;99.90;;;;;;4828698;29;20525;-69
2021/01/13 05:15:35;;;;;;;3.28;0.80;;;3.30;99.90;;;;;;4835390;29;20057;-69
2021/01/13 05:18:09;;;;;;;3.40;0.95;;;3.30;99.90;;;;;;4847272;29;20057;-69
2021/01/13 05:20:40;;;;;;;4.95;0.80;;;3.30;99.90;;;;;;4833744;29;20132;-69
2021/01/13 05:23:12;;;;;;;2.85;0.77;;;3.30;99.90;;;;;;4830982;29;21217;-69
2021/01/13 05:25:52;;;;;;;3.15;1.20;;;3.30;99.90;;;;;;4834947;29;20054;-69
2021/01/13 05:28:23;;;;;;;1.67;0.75;;;3.30;99.90;;;;;;4845593;29;20102;-69
2021/01/13 05:30:55;;;;;;;2.38;0.73;;;3.30;99.90;;;;;;4830793;29;20057;-69
2021/01/13 05:33:25;;;;;;;1.80;0.70;;;3.30;99.90;;;;;;4848842;29;20069;-70
2021/01/13 05:35:57;;;;;;;2.15;1.00;;;3.20;99.90;;;;;;4828395;29;20420;-69
2021/01/13 05:38:39;;;;;;;4.65;1.10;;;3.20;99.90;;;;;;4826948;29;20406;-69
2021/01/13 05:41:10;;;;;;;1.80;0.85;;;3.20;99.90;;;;;;4831341;29;20046;-69
2021/01/13 05:43:48;;;;;;;7.38;1.00;;;3.20;99.90;;;;;;4849008;29;20053;-69
2021/01/13 05:46:20;;;;;;;3.67;1.00;;;3.20;99.90;;;;;;4829933;29;20053;-69
2021/01/13 05:48:49;;;;;;;2.33;0.70;;;3.20;99.90;;;;;;4828112;29;20092;-69
2021/01/13 05:51:16;;;;;;;2.30;1.17;;;3.20;99.90;;;;;;4825912;29;20129;-69
2021/01/13 05:53:52;;;;;;;4.25;0.80;;;3.20;99.90;;;;;;4849785;29;20076;-69
2021/01/13 05:56:19;;;;;;;5.18;1.33;;;3.20;99.90;;;;;;4831508;29;20053;-69
2021/01/13 05:58:47;;;;;;;2.63;0.63;;;3.20;99.90;;;;;;4848356;29;20057;-69
2021/01/13 06:01:32;;;;;;;3.53;0.90;;;3.30;99.90;;;;;;4830670;29;20384;-69
2021/01/13 06:03:59;;;;;;;2.58;1.00;;;3.30;99.90;;;;;;4833445;29;20060;-69
2021/01/13 06:06:26;;;;;;;1.83;0.90;;;3.30;99.90;;;;;;4848400;29;20157;-69
2021/01/13 06:08:55;;;;;;;5.97;1.02;;;3.30;99.90;;;;;;4834919;29;20076;-69
2021/01/13 06:11:25;;;;;;;3.72;0.85;;;3.30;99.90;;;;;;4849806;29;20550;-69
2021/01/13 06:13:51;;;;;;;3.83;2.03;;;3.30;99.90;;;;;;4836769;29;20081;-69
2021/01/13 06:16:19;;;;;;;3.65;1.00;;;3.40;99.90;;;;;;4829712;29;20089;-69
2021/01/13 06:18:51;;;;;;;5.03;0.95;;;3.40;99.90;;;;;;4834603;29;20569;-69
2021/01/13 06:21:18;;;;;;;2.08;0.90;;;3.30;99.90;;;;;;4841292;29;20438;-69
2021/01/13 06:23:50;;;;;;;4.28;0.88;;;3.40;99.90;;;;;;4833807;29;20133;-69
2021/01/13 06:26:17;;;;;;;2.60;0.82;;;3.40;99.90;;;;;;4841017;29;20053;-69
2021/01/13 06:29:12;;;;;;;1.13;0.63;;;3.40;99.90;;;;;;4852502;29;20049;-69
2021/01/13 06:31:43;;;;;;;4.40;1.00;;;3.40;99.90;;;;;;4835434;29;20168;-69
2021/01/13 06:34:26;;;;;;;1.45;0.70;;;3.40;99.90;;;;;;4836418;29;20081;-69
2021/01/13 06:37:43;;;;;;;3.15;1.08;;;3.40;99.90;;;;;;4840240;29;20054;-69
2021/01/13 06:40:19;;;;;;;3.13;1.15;;;3.30;99.90;;;;;;4821095;29;20045;-69
2021/01/13 06:42:46;;;;;;;3.60;1.00;;;3.30;99.90;;;;;;4839529;29;20072;-69
2021/01/13 06:45:13;;;;;;;6.28;1.15;;;3.40;99.90;;;;;;4854218;29;20087;-69
2021/01/13 06:47:57;;;;;;;4.45;1.00;;;3.40;99.90;;;;;;4841217;29;20126;-69
2021/01/13 06:50:34;;;;;;;1.77;0.80;;;3.30;99.90;;;;;;4831509;29;20061;-70
2021/01/13 06:53:09;;;;;;;2.83;1.17;;;3.30;99.90;;;;;;4837653;29;20122;-69
2021/01/13 06:55:37;;;;;;;2.80;0.80;;;3.30;99.90;;;;;;4832731;29;20049;-69
2021/01/13 06:58:16;;;;;;;2.30;1.00;;;3.30;99.90;;;;;;4854749;29;20061;-69
2021/01/13 07:00:44;;;;;;;1.35;0.70;;;3.30;99.90;;;;;;4853297;29;20045;-69
2021/01/13 07:03:30;;;;;;;3.13;0.80;;;3.30;99.90;;;;;;4840684;29;20057;-69
2021/01/13 07:06:10;;;;;;;1.80;0.75;;;3.20;99.90;;;;;;4840394;29;20441;-69
2021/01/13 07:08:36;;;;;;;;;;;3.20;99.90;;;;;;4837806;29;20092;-69
2021/01/13 07:11:09;;;;;;;2.55;0.70;;;3.20;99.90;;;;;;4839602;29;19924;-69
2021/01/13 07:13:41;;;;;;;4.88;0.90;;;3.20;99.90;;;;;;4840246;29;20515;-69
2021/01/13 07:16:08;;;;;;;1.33;0.63;;;3.20;99.90;;;;;;4854795;29;20069;-69
2021/01/13 07:18:35;;;;;;;1.95;0.80;;;3.20;99.90;;;;;;4841441;29;20058;-69
2021/01/13 07:21:12;;;;;;;4.72;1.20;;;3.20;99.90;;;;;;4835779;29;20128;-69
2021/01/13 07:23:43;;;;;;;2.25;1.05;;;3.20;99.90;;;;;;4837359;29;20501;-69
2021/01/13 07:26:13;;;;;;;1.85;0.75;;;3.10;99.90;;;;;;4842769;29;20134;-69
2021/01/13 07:28:41;;;;;;;1.77;0.63;;;3.10;99.90;;;;;;4825022;29;20073;-69
2021/01/13 07:31:08;;;;;;;2.17;0.90;;;3.10;99.90;;;;;;4825641;29;20352;-69
2021/01/13 07:33:36;;;;;;;6.07;1.00;;;3.00;99.90;;;;;;4826472;29;20050;-69
2021/01/13 07:36:04;;;;;;;1.75;0.80;;;3.00;99.90;;;;;;4827040;29;20173;-69
2021/01/13 07:38:34;;;;;;;2.15;1.02;;;2.90;99.90;;;;;;4832172;29;20085;-69
2021/01/13 07:41:05;;;;;;;2.05;0.73;;;2.90;99.90;;;;;;4827434;29;20050;-70
2021/01/13 07:43:54;;;;;;;2.20;0.70;;;2.90;99.90;;;;;;4830046;29;20077;-69
2021/01/13 07:46:29;;;;;;;1.50;0.82;;;2.90;99.90;;;;;;4829743;29;20042;-68
2021/01/13 07:49:21;;;;;;;1.50;0.60;;;2.90;99.90;;;;;;4830005;29;20092;-68
2021/01/13 07:51:49;;;;;;;3.13;0.80;;;2.80;99.90;;;;;;4830888;29;20046;-68
2021/01/13 07:54:33;;;;;;;2.00;0.55;;;2.80;99.90;;;;;;4828125;29;20053;-66
2021/01/13 07:57:02;;;;;;;1.27;0.68;;;2.80;99.90;;;;;;4831543;29;20378;-67
2021/01/13 07:59:57;;;;;;;3.22;0.75;;;2.80;99.90;;;;;;4830401;29;20045;-68
2021/01/13 08:03:01;;;;;;;1.92;0.70;;;2.80;99.90;;;;;;4828063;29;20060;-68
2021/01/13 08:06:05;;;;;;;1.75;0.98;;;2.80;99.90;;;;;;4823925;29;20069;-68
2021/01/13 08:09:01;;;;;;;1.77;0.80;;;2.90;99.90;;;;;;4829224;29;20435;-68
2021/01/13 08:11:30;;;;;;;1.42;0.77;;;2.90;99.90;;;;;;4840115;29;20054;-68
2021/01/13 08:14:27;;;;;;;2.55;0.90;;;2.90;99.90;;;;;;4828232;29;20101;-69
2021/01/13 08:17:07;;;;;;;1.95;0.88;;;2.90;99.90;;;;;;4852724;29;20474;-68
2021/01/13 08:19:56;;;;;;;3.17;0.80;;;3.00;99.90;;;;;;4827181;29;20149;-68
2021/01/13 08:22:25;;;;;;;4.50;0.95;;;3.00;99.90;;;;;;4845388;29;20057;-69
2021/01/13 08:25:12;;;;;;;2.22;0.80;;;3.10;99.90;;;;;;4830293;29;20057;-68
2021/01/13 08:27:39;;;;;;;1.90;0.88;;;3.10;99.90;;;;;;4839397;29;20716;-69
2021/01/13 08:30:06;;;;;;;3.33;1.15;;;3.10;99.90;;;;;;4827888;29;20089;-68
2021/01/13 08:32:41;;;;;;;2.17;1.00;;;3.10;99.90;;;;;;4826725;29;20136;-68
2021/01/13 08:35:08;;;;;;;2.30;0.80;;;3.20;99.90;;;;;;4846952;29;20386;-68
2021/01/13 08:37:36;;;;;;;3.83;0.70;;;3.20;99.90;;;;;;4827034;29;20140;-69
2021/01/13 08:40:24;;;;;;;2.88;1.05;;;3.20;99.90;;;;;;4844108;29;20201;-69
2021/01/13 08:43:05;;;;;;;3.63;0.90;;;3.30;99.90;;;;;;4841326;29;20114;-68
2021/01/13 08:45:34;;;;;;;5.00;1.10;;;3.30;99.90;;;;;;4827568;29;20061;-69
2021/01/13 08:48:09;;;;;;;2.05;1.02;;;3.40;99.90;;;;;;4828235;29;20097;-69
2021/01/13 08:50:36;;;;;;;3.35;1.00;;;3.40;99.90;;;;;;4826979;29;20068;-69
2021/01/13 08:53:04;;;;;;;4.05;1.10;;;3.50;99.90;;;;;;4830397;29;21130;-69
2021/01/13 08:55:32;;;;;;;3.17;1.00;;;3.50;99.90;;;;;;4827261;29;20139;-69
2021/01/13 08:57:58;;;;;;;3.90;1.10;;;3.60;99.90;;;;;;4828171;29;20094;-70
2021/01/13 09:00:25;;;;;;;1.27;0.70;;;3.70;99.90;;;;;;4825140;29;20184;-69
2021/01/13 09:03:04;;;;;;;3.50;0.80;;;3.80;99.90;;;;;;4827592;29;20061;-69
2021/01/13 09:05:35;;;;;;;2.58;0.93;;;3.80;99.90;;;;;;4827647;29;20057;-69
2021/01/13 09:08:05;;;;;;;3.00;0.90;;;4.00;99.90;;;;;;4826745;29;20557;-69
2021/01/13 09:10:47;;;;;;;3.03;1.15;;;4.10;99.90;;;;;;4828440;29;20386;-69
2021/01/13 09:13:35;;;;;;;3.47;1.50;;;4.20;99.90;;;;;;4828244;29;20058;-69
2021/01/13 09:16:26;;;;;;;3.45;1.42;;;4.40;99.90;;;;;;4825038;29;20073;-69
2021/01/13 09:18:59;;;;;;;2.42;1.00;;;4.60;99.90;;;;;;4827846;29;20058;-69
2021/01/13 09:21:33;;;;;;;4.07;1.13;;;4.80;99.90;;;;;;4824850;29;20057;-68
2021/01/13 09:24:04;;;;;;;2.40;0.90;;;4.90;99.90;;;;;;4842266;29;20057;-69
2021/01/13 09:26:37;;;;;;;4.82;1.05;;;5.00;99.90;;;;;;4836327;29;20054;-69
2021/01/13 09:29:12;;;;;;;3.60;0.88;;;5.10;99.90;;;;;;4823426;29;20529;-69
2021/01/13 09:31:39;;;;;;;3.45;1.08;;;5.10;99.90;;;;;;4826233;29;20058;-69
2021/01/13 09:34:07;;;;;;;3.10;0.93;;;5.10;99.90;;;;;;4829612;29;20548;-68
2021/01/13 09:36:57;;;;;;;3.20;0.98;;;5.10;99.90;;;;;;4826671;29;20058;-69
2021/01/13 09:39:33;;;;;;;1.58;0.70;;;5.10;99.90;;;;;;4824898;29;20136;-68
2021/01/13 09:42:01;;;;;;;2.33;0.80;;;5.10;99.90;;;;;;4845042;29;20045;-69
2021/01/13 09:44:30;;;;;;;2.58;0.82;;;5.00;99.90;;;;;;4839287;29;20085;-68
2021/01/13 09:46:57;;;;;;;;;;;5.10;99.90;;;;;;4805370;29;583287;-69
2021/01/13 09:49:24;;;;;;;5.30;1.75;;;5.10;99.90;;;;;;4826793;29;19932;-69
2021/01/13 09:51:51;;;;;;;2.47;1.15;;;5.20;99.90;;;;;;4826736;29;20112;-69
2021/01/13 09:54:24;;;;;;;5.53;1.20;;;5.20;99.90;;;;;;4830440;29;20170;-70
2021/01/13 09:57:12;;;;;;;3.53;1.00;;;5.30;99.90;;;;;;4830937;29;20077;-69
2021/01/13 09:59:50;;;;;;;3.25;1.13;;;5.40;99.90;;;;;;4825318;29;20073;-69
2021/01/13 10:02:19;;;;;;;4.93;1.43;;;5.50;99.90;;;;;;4827220;29;20080;-69
2021/01/13 10:04:52;;;;;;;3.78;1.30;;;5.50;99.90;;;;;;4844162;29;20412;-69
2021/01/13 10:07:23;;;;;;;3.65;1.15;;;5.60;99.90;;;;;;4827478;29;20145;-69
2021/01/13 10:09:50;;;;;;;3.88;1.25;;;5.80;99.90;;;;;;4828722;29;20429;-70
2021/01/13 10:12:18;;;;;;;1.92;0.77;;;6.00;99.90;;;;;;4826464;29;20420;-69
2021/01/13 10:14:52;;;;;;;6.57;1.35;;;6.20;99.90;;;;;;4829934;29;20125;-69
2021/01/13 10:17:26;;;;;;;3.80;0.90;;;6.40;99.90;;;;;;4827261;29;20073;-69
2021/01/13 10:19:57;;;;;;;4.90;1.05;;;6.50;99.90;;;;;;4826650;29;20437;-69
2021/01/13 10:22:25;;;;;;;2.70;1.10;;;6.60;99.90;;;;;;4826165;29;20061;-69
2021/01/13 10:24:52;;;;;;;4.20;1.45;;;6.70;99.90;;;;;;4845120;29;20113;-69
2021/01/13 10:27:19;;;;;;;4.18;1.00;;;6.80;99.90;;;;;;4825753;29;20099;-69
2021/01/13 10:29:46;;;;;;;4.32;1.00;;;6.90;99.90;;;;;;4825889;29;20058;-69
2021/01/13 10:32:14;;;;;;;5.40;0.98;;;7.00;99.90;;;;;;4826641;29;20816;-69
2021/01/13 10:34:41;;;;;;;;;;;7.10;99.90;;;;;;4828934;29;20058;-69
2021/01/13 10:37:08;;;;;;;5.95;1.20;;;7.10;99.90;;;;;;4826209;29;20016;-69
2021/01/13 10:39:34;;;;;;;3.97;1.10;;;7.00;99.90;;;;;;4828942;29;20487;-69
2021/01/13 10:42:06;;;;;;;8.88;1.23;;;6.90;99.90;;;;;;4827544;29;20186;-69
2021/01/13 10:44:34;;;;;;;3.45;1.05;;;6.90;99.90;;;;;;4826953;29;20062;-69
2021/01/13 10:47:26;;;;;;;3.95;1.40;;;6.90;99.90;;;;;;4847048;29;20523;-68
2021/01/13 10:50:02;;;;;;;4.43;1.08;;;7.10;99.90;;;;;;4840089;29;20237;-69
2021/01/13 10:52:38;;;;;;;3.35;1.05;;;7.40;99.90;;;;;;4845257;29;20078;-69
2021/01/13 10:55:08;;;;;;;3.60;1.00;;;7.70;99.90;;;;;;4841950;29;20409;-69
2021/01/13 10:57:35;;;;;;;6.68;1.13;;;7.70;99.90;;;;;;4826241;29;20061;-69
2021/01/13 11:00:12;;;;;;;4.50;1.00;;;7.80;99.90;;;;;;4840605;29;20064;-69
2021/01/13 11:02:39;;;;;;;4.40;1.83;;;7.90;99.90;;;;;;4827734;29;20442;-69
2021/01/13 11:05:07;;;;;;;2.83;1.00;;;8.00;99.90;;;;;;4838087;29;20108;-69
2021/01/13 11:07:43;;;;;;;4.95;1.20;;;8.10;99.90;;;;;;4838055;29;20045;-69
2021/01/13 11:10:11;;;;;;;3.33;1.10;;;8.10;99.90;;;;;;4851140;29;20634;-69
2021/01/13 11:12:38;;;;;;;;;;;7.90;99.90;;;;;;4834983;29;20148;-70
2021/01/13 11:15:08;;;;;;;3.55;1.00;;;7.70;99.90;;;;;;4825718;29;19964;-69
2021/01/13 11:17:35;;;;;;;6.95;1.23;;;7.50;99.90;;;;;;4825802;29;20094;-69
2021/01/13 11:20:04;;;;;;;6.05;1.17;;;7.40;99.90;;;;;;4824480;29;20148;-70
2021/01/13 11:22:44;;;;;;;2.38;0.82;;;7.30;99.90;;;;;;4844162;29;20137;-69
2021/01/13 11:25:36;;;;;;;2.55;1.17;;;7.30;99.90;;;;;;4826189;29;20045;-69
2021/01/13 11:28:10;;;;;;;4.32;0.70;;;7.50;99.90;;;;;;4825596;29;20439;-69
2021/01/13 11:30:42;;;;;;;4.32;1.00;;;7.60;99.90;;;;;;4841189;29;20066;-69
2021/01/13 11:33:12;;;;;;;7.40;1.40;;;7.50;99.90;;;;;;4841705;29;20061;-69
2021/01/13 11:35:41;;;;;;;4.10;0.93;;;7.30;99.90;;;;;;4828276;29;20461;-69
2021/01/13 11:38:36;;;;;;;4.07;1.02;;;7.40;99.90;;;;;;4827422;29;20114;-69
2021/01/13 11:41:17;;;;;;;4.95;1.25;;;7.90;99.90;;;;;;4823472;29;20102;-69
2021/01/13 11:43:53;;;;;;;6.15;1.27;;;8.30;99.90;;;;;;4822674;29;20073;-68
2021/01/13 11:46:30;;;;;;;3.33;1.20;;;8.70;99.90;;;;;;4849164;29;20046;-69
2021/01/13 11:49:31;;;;;;;2.83;1.10;;;9.20;99.90;;;;;;4822761;29;20487;-69
2021/01/13 11:52:06;;;;;;;5.53;1.17;;;9.80;99.90;;;;;;4822795;29;20117;-69
2021/01/13 11:54:34;;;;;;;6.50;1.10;;;10.30;99.90;;;;;;4824140;29;20423;-69
2021/01/13 11:57:23;;;;;;;2.67;0.93;;;10.60;99.90;;;;;;4826052;29;20130;-69
2021/01/13 11:59:51;;;;;;;3.85;1.10;;;10.80;99.90;;;;;;4830524;29;20466;-69
2021/01/13 12:02:21;;;;;;;5.07;1.23;;;10.80;99.90;;;;;;4831374;29;20062;-69
2021/01/13 12:04:49;;;;;;;4.85;1.20;;;10.90;99.90;;;;;;4842287;29;20383;-69
2021/01/13 12:07:17;;;;;;;5.53;1.20;;;11.00;99.90;;;;;;4826813;29;20478;-69
2021/01/13 12:09:44;;;;;;;5.43;1.05;;;11.00;99.90;;;;;;4825725;29;20168;-69
2021/01/13 12:12:28;;;;;;;6.05;1.20;;;10.90;99.90;;;;;;4843513;29;20558;-69
2021/01/13 12:15:03;;;;;;;3.20;1.05;;;10.70;99.90;;;;;;4843572;29;20201;-68
2021/01/13 12:17:33;;;;;;;5.00;1.23;;;10.60;99.90;;;;;;4845033;29;20399;-69
2021/01/13 12:20:01;;;;;;;4.70;0.90;;;10.30;99.90;;;;;;4825137;29;20058;-69
2021/01/13 12:22:35;;;;;;;5.43;1.10;;;9.90;99.90;;;;;;4829353;29;20507;-69
2021/01/13 12:25:04;;;;;;;2.33;1.00;;;9.50;99.90;;;;;;4827450;29;20046;-69
2021/01/13 12:27:31;;;;;;;4.65;1.20;;;9.00;99.90;;;;;;4842836;29;20053;-68
2021/01/13 12:30:15;;;;;;;8.25;1.52;;;8.50;99.90;;;;;;4830313;29;20383;-68
2021/01/13 12:32:47;;;;;;;3.42;1.05;;;8.20;99.90;;;;;;4835208;29;20061;-69
2021/01/13 12:35:13;;;;;;;6.25;1.35;;;8.10;99.90;;;;;;4826819;29;20065;-69
2021/01/13 12:37:50;;;;;;;5.72;1.10;;;8.00;99.90;;;;;;4829933;29;20937;-69
2021/01/13 12:40:33;;;;;;;3.45;1.10;;;8.00;99.90;;;;;;4825814;29;20490;-69
2021/01/13 12:43:17;;;;;;;4.40;1.08;;;8.00;99.90;;;;;;4831698;29;20486;-69
2021/01/13 12:45:45;;;;;;;4.82;1.48;;;7.90;99.90;;;;;;4828162;29;20069;-68
2021/01/13 12:48:12;;;;;;;6.03;1.67;;;7.80;99.90;;;;;;4831392;29;20414;-68
2021/01/13 12:50:41;;;;;;;2.15;1.00;;;7.60;99.90;;;;;;4843625;29;20061;-69
2021/01/13 12:53:07;;;;;;;4.28;1.33;;;7.40;99.90;;;;;;4831092;29;20569;-68
2021/01/13 12:55:34;;;;;;;4.80;1.40;;;7.30;99.90;;;;;;4830317;29;20050;-68
2021/01/13 12:58:00;;;;;;;2.80;0.82;;;7.30;99.90;;;;;;4829670;29;20073;-69
2021/01/13 13:00:27;;;;;;;2.55;1.00;;;7.20;99.90;;;;;;4844993;29;20054;-69
2021/01/13 13:02:53;;;;;;;5.38;1.20;;;7.20;99.90;;;;;;4831118;29;20069;-69
2021/01/13 13:05:22;;;;;;;3.53;0.88;;;7.10;99.90;;;;;;4827392;29;20046;-68
2021/01/13 13:07:48;;;;;;;4.60;1.00;;;7.30;99.90;;;;;;4828282;29;20073;-69
2021/01/13 13:10:15;;;;;;;5.45;1.20;;;7.80;99.90;;;;;;4825974;29;20146;-69
2021/01/13 13:12:42;;;;;;;2.90;0.88;;;8.10;99.90;;;;;;4824704;29;20057;-69
2021/01/13 13:15:09;;;;;;;4.63;1.20;;;8.20;99.90;;;;;;4844758;29;20054;-69
2021/01/13 13:17:40;;;;;;;3.10;1.13;;;8.10;99.90;;;;;;4827350;29;20058;-69
2021/01/13 13:20:08;;;;;;;3.72;1.10;;;8.00;99.90;;;;;;4829385;29;20068;-69
2021/01/13 13:22:35;;;;;;;5.25;1.48;;;8.20;99.90;;;;;;4826743;29;20503;-68
2021/01/13 13:25:05;;;;;;;7.05;1.55;;;8.40;99.90;;;;;;4828563;29;20110;-69
2021/01/13 13:27:36;;;;;;;4.68;0.80;;;8.60;99.90;;;;;;4824934;29;20077;-69
2021/01/13 13:30:05;;;;;;;3.67;1.10;;;8.50;99.90;;;;;;4846334;29;20069;-69